Airfield :
LOGIN :

Register | Disclaimer

   EN    FR    IT 

 










Legend :    VFR   Marginal VFR   IFR   Intensive IFR   Very Intensive IFR
Visi :
Ceiling :
>= 8 km
>= 3000ft
5 to 8 km
1000 to 3000 ft
1500m to 5 km
500 to 1000 ft
800 to 1500m
200 to 500 ft
< 800m
< 200 ft
Symbols :   Thunderstorms  Fog  Heavy snow  Heavy precipitations  Wind > 20 kt
SIGMETs :     Misc.  Thunderstorms  Icing  Turbulence  Mountain Waves  Volcanic Ashes







- Airport Elevation : 160 ft
- IATA code : FMO


EDDG - Münster Osnabrück Int.

CURRENT METAR :
  • 270620Z 15004KT 120V190 CAVOK 07/05 Q1014 NOSIG

EXPIRED METARs :
  • 270550Z 13003KT 080V180 9000 NSC 06/04 Q1014 NOSIG
  • 270520Z 13004KT 100V160 7000 MIFG NSC 05/03 Q1015 NOSIG
  • 270450Z 13003KT 090V180 7000 MIFG NSC 04/03 Q1015 NOSIG
  • 270420Z 14004KT 7000 MIFG FEW035 BKN270 04/03 Q1015 NOSIG
  • 270350Z 13004KT 7000 MIFG FEW035 SCT150 BKN270 05/04 Q1015 NOSIG

TAF TAF EDDG
Valid from the 27 at 06:00 until the 28 at 06:00 UTC


270500Z 2706/2806 VRB03KT CAVOK
BECMG 2706/2708 18005KT
BECMG 2715/2718 VRB03KT
No reported NOTAMs for that airfield.



MET'MAP, your aeronautical weather chart ! - Copyright ORBIFLY December 2007 - Disclaimer

ORBIFLY MET'MAP TEAM :

Programming & Development : Alexandra Zaïnal
Concept & Development : Baudouin d'Aumeries
Co-Development & Prog : Marc-Olivier Méhu
Technical & hardware support : Manuel Goepfert

Contact : metmap@orbifly.com




SOURCES & CREDITS :

   NOAA